ENG ESP
Escola de Pilots
Telèfon 972234126 972 23 41 26
 

Informació meteorològica aeronàutica

 

En aquest apartat apareix la informació meteorològica aeronàutica que és utilitzada a les pràctiques dels alumnes de l’Escola de Pilots del nostre centre durant la seva formació, pel que pot no ser actual i s’hauria d’utilitzar pel seu propi compte i risc. AERBRAVA no es fa responsable del seu ús.

 

TEMPS ACTUAL

Carregant..

sat24.com

Servei Meteorològic de Catalunya

 
LEGE 271530Z 07008KT 9999 BKN045 23/14 Q1017 NOSIG
LEGE 271500Z 06006KT 020V110 9999 BKN045 24/14 Q1017 NOSIG
LEGE 271430Z 08004KT 350V120 9999 BKN050 24/14 Q1017 NOSIG
LEGE 271400Z 07007KT 9999 BKN050 23/13 Q1017 NOSIG
LEGE 271330Z 09006KT 030V140 9999 BKN050 24/13 Q1017 NOSIG
LEGE 271300Z 12001KT 9999 SCT045 BKN090 24/13 Q1017 NOSIG
LEGE 271230Z 11004KT 9999 BKN040 24/14 Q1018 NOSIG
LEGE 271200Z 09006KT 030V190 9999 BKN040 24/14 Q1018 NOSIG
LEGE 271130Z 08006KT 010V130 9999 SCT035 BKN045 23/14 Q1018 NOSIG
LEGE 271100Z 09002KT 9999 BKN045 BKN075 23/15 Q1018 NOSIG
LEGE 271030Z 04003KT 9999 SCT035 BKN042 BKN075 22/15 Q1018 NOSIG
LEGE 271000Z 11004KT 060V170 9999 BKN035 BKN075 23/14 Q1018 NOSIG

TAF LEGE 271100Z 2712/2812 03009KT 9999 SCT040 TX25/2713Z TN14/2802Z
BECMG 2810/2812 18009KT

Aviation Weather

 
Aerbrava en el facebook Aerbrava en el twitter Aerbrava instagram
No utilitzem cookies, no recaptem ni cedim dades de caràcter personal dels usuaris. Click AQUÍ, per a més informació sobre la Política de Cookies.

¡html Vàlid! ¡CSS Vàlid!